Time;durP1;ratioP1;P1;durP2;ratioP2;P2;SDS_P1;SDS_P2;PMS_P1;PMS_P2;Temp;Humidity;BMP_temperature;BMP_pressure;BME280_temperature;BME280_humidity;BME280_pressure;Samples;Min_cycle;Max_cycle;Signal;HPM_P1;HPM_P2
2021/09/19 00:02:10;;;;;;;10.43;6.30;;;10.00;99.90;;;8.73;100.00;97870.66;4922919;29;20455;-84
2021/09/19 00:04:39;;;;;;;6.60;6.10;;;10.00;99.90;;;8.68;100.00;97878.53;4923852;29;20470;-85
2021/09/19 00:07:09;;;;;;;7.23;6.63;;;10.00;99.90;;;8.59;100.00;97842.88;4922141;29;20523;-85
2021/09/19 00:09:43;;;;;;;6.00;5.50;;;10.00;99.90;;;8.74;100.00;97864.25;4918134;29;21035;-85
2021/09/19 00:12:14;;;;;;;6.50;6.00;;;10.00;99.90;;;8.72;100.00;97869.00;4925086;29;20455;-84
2021/09/19 00:14:41;;;;;;;8.23;6.50;;;10.00;99.90;;;8.47;100.00;97833.72;4923676;29;20498;-84
2021/09/19 00:17:10;;;;;;;6.43;5.83;;;9.90;99.90;;;8.48;100.00;97855.06;4927440;29;20494;-85
2021/09/19 00:19:37;;;;;;;7.07;6.47;;;9.90;99.90;;;8.58;100.00;97845.81;4931207;29;21005;-84
2021/09/19 00:22:06;;;;;;;6.33;5.33;;;9.90;99.90;;;8.63;100.00;97856.78;4939637;29;20817;-84
2021/09/19 00:24:35;;;;;;;7.40;6.77;;;9.90;99.90;;;8.61;100.00;97862.34;4903604;29;20491;-83
2021/09/19 00:27:11;;;;;;;7.43;6.80;;;9.90;99.90;;;8.59;100.00;97859.03;4924805;29;20467;-84
2021/09/19 00:29:38;;;;;;;6.50;6.00;;;9.80;99.90;;;8.62;100.00;97857.81;4930409;29;20960;-83
2021/09/19 00:32:08;;;;;;;8.00;6.93;;;9.90;99.90;;;8.68;100.00;97851.59;4923976;29;20474;-84
2021/09/19 00:34:38;;;;;;;5.67;5.27;;;9.90;99.90;;;8.84;100.00;97854.91;4926451;29;20555;-84
2021/09/19 00:37:06;;;;;;;6.73;6.23;;;10.00;99.90;;;8.53;100.00;97859.03;4925147;29;20869;-84
2021/09/19 00:39:33;;;;;;;6.27;5.77;;;9.90;99.90;;;8.53;100.00;97848.28;4912481;29;20536;-85
2021/09/19 00:42:00;;;;;;;7.30;6.60;;;9.80;99.90;;;8.24;100.00;97840.34;4925190;29;20456;-84
2021/09/19 00:44:29;;;;;;;8.17;7.37;;;9.70;99.90;;;8.22;100.00;97848.63;4901941;29;20452;-84
2021/09/19 00:46:57;;;;;;;6.50;5.90;;;9.60;99.90;;;8.08;100.00;97855.84;4940196;29;20468;-83
2021/09/19 00:49:26;;;;;;;7.73;7.03;;;9.50;99.90;;;8.00;100.00;97850.63;4924041;29;20551;-83
2021/09/19 00:51:54;;;;;;;7.50;6.90;;;9.40;99.90;;;7.88;100.00;97842.34;4924422;29;20467;-85
2021/09/19 00:54:23;;;;;;;10.50;7.90;;;9.30;99.90;;;8.01;100.00;97846.09;4916313;29;20834;-84
2021/09/19 00:56:56;;;;;;;6.97;6.37;;;9.40;99.90;;;8.02;100.00;97853.13;4934649;29;20455;-86
2021/09/19 00:59:34;;;;;;;7.90;6.63;;;9.40;99.90;;;7.85;100.00;97832.00;4938167;29;20515;-84
2021/09/19 01:02:06;;;;;;;7.60;7.00;;;9.30;99.90;;;8.29;100.00;97847.81;4940417;29;20502;-84
2021/09/19 01:04:35;;;;;;;7.93;7.13;;;9.40;99.90;;;8.14;100.00;97821.91;4921018;29;20531;-84
2021/09/19 01:07:03;;;;;;;8.13;7.33;;;9.50;99.90;;;8.01;100.00;97835.34;4926095;29;20944;-85
2021/09/19 01:09:35;;;;;;;6.73;6.20;;;9.40;99.90;;;8.28;100.00;97841.59;4924502;29;20484;-85
2021/09/19 01:12:06;;;;;;;6.73;6.03;;;9.50;99.90;;;8.23;100.00;97850.28;4905420;29;20472;-84
2021/09/19 01:14:41;;;;;;;7.47;6.67;;;9.50;99.90;;;8.11;100.00;97822.28;4925287;29;20487;-84
2021/09/19 01:17:12;;;;;;;6.57;5.77;;;9.50;99.90;;;7.96;100.00;97829.72;4927046;29;20447;-83
2021/09/19 01:19:43;;;;;;;7.30;6.67;;;9.40;99.90;;;7.91;100.00;97836.53;4926760;29;20468;-84
2021/09/19 01:22:11;;;;;;;7.03;6.53;;;9.30;99.90;;;7.67;100.00;97831.72;4921578;29;20457;-83
2021/09/19 01:24:41;;;;;;;7.80;6.50;;;9.20;99.90;;;7.77;100.00;97841.06;4909975;29;20512;-82
2021/09/19 01:27:08;;;;;;;7.17;6.47;;;9.20;99.90;;;7.67;100.00;97842.47;4931387;29;20483;-85
2021/09/19 01:29:39;;;;;;;6.80;6.20;;;9.10;99.90;;;7.68;100.00;97825.31;4945995;29;20471;-85
2021/09/19 01:32:07;;;;;;;7.50;6.80;;;9.00;99.90;;;7.72;100.00;97832.75;4950544;29;20500;-82
2021/09/19 01:34:35;;;;;;;7.20;6.60;;;9.10;99.90;;;7.62;100.00;97827.75;4949466;29;20476;-85
2021/09/19 01:37:04;;;;;;;9.17;6.53;;;9.00;99.90;;;7.68;100.00;97830.69;4923315;29;20443;-83
2021/09/19 01:39:31;;;;;;;7.87;7.07;;;9.00;99.90;;;7.64;100.00;97823.00;4927630;29;20508;-84
2021/09/19 01:42:00;;;;;;;8.70;6.70;;;9.00;99.90;;;7.58;100.00;97823.81;4953438;28;20460;-84
2021/09/19 01:44:30;;;;;;;8.00;7.30;;;9.00;99.90;;;7.47;100.00;97776.00;4925240;29;20452;-83
2021/09/19 01:46:58;;;;;;;7.13;6.60;;;9.00;99.90;;;7.80;100.00;97826.38;4930462;29;20459;-85
2021/09/19 01:49:25;;;;;;;7.10;6.43;;;9.10;99.90;;;7.94;100.00;97819.19;4929832;29;20460;-83
2021/09/19 01:51:58;;;;;;;8.20;6.03;;;9.10;99.90;;;7.76;100.00;97827.81;4910791;29;20476;-86
2021/09/19 01:54:28;;;;;;;8.80;6.20;;;9.10;99.90;;;8.22;100.00;97820.88;4907164;29;20829;-85
2021/09/19 01:56:55;;;;;;;6.20;5.70;;;9.30;99.90;;;7.83;100.00;97822.44;4937918;29;20568;-85
2021/09/19 01:59:24;;;;;;;7.17;6.37;;;9.20;99.90;;;7.93;100.00;97823.72;4922712;29;20523;-85
2021/09/19 02:01:51;;;;;;;6.30;5.80;;;9.20;99.90;;;7.79;100.00;97819.31;4915901;29;20534;-85
2021/09/19 02:04:19;;;;;;;7.20;6.60;;;9.10;99.90;;;7.64;100.00;97798.81;4916708;29;20528;-86
2021/09/19 02:06:47;;;;;;;7.53;6.67;;;9.10;99.90;;;7.78;100.00;97825.75;4940385;29;20512;-85
2021/09/19 02:09:15;;;;;;;9.47;8.60;;;9.10;99.90;;;8.11;100.00;97811.53;4925043;29;20551;-85
2021/09/19 02:11:43;;;;;;;9.67;8.80;;;9.20;99.90;;;7.76;100.00;97801.75;4917773;29;20475;-85
2021/09/19 02:14:10;;;;;;;8.90;8.20;;;9.20;99.90;;;7.60;100.00;97792.19;4905107;29;20456;-85
2021/09/19 02:16:39;;;;;;;10.80;9.77;;;9.20;99.90;;;8.03;100.00;97809.06;4921117;29;20479;-85
2021/09/19 02:19:07;;;;;;;9.43;8.40;;;9.20;99.90;;;7.73;100.00;97790.56;4924823;29;20543;-85
2021/09/19 02:21:41;;;;;;;7.77;7.07;;;9.20;99.90;;;7.53;100.00;97767.16;4894005;29;20465;-88
2021/09/19 02:24:10;;;;;;;9.30;8.33;;;9.10;99.90;;;7.92;100.00;97805.09;4923538;29;20470;-84
2021/09/19 02:26:43;;;;;;;8.67;7.83;;;9.10;99.90;;;7.57;100.00;97795.28;4920147;29;20448;-85
2021/09/19 02:29:10;;;;;;;8.70;7.83;;;9.00;99.90;;;7.29;100.00;97763.13;4926112;29;20471;-86
2021/09/19 02:31:41;;;;;;;9.37;8.47;;;8.90;99.90;;;7.37;100.00;97793.34;4919795;29;21135;-85
2021/09/19 02:34:08;;;;;;;8.60;7.80;;;8.80;99.90;;;7.24;100.00;97787.91;4952122;29;20455;-85
2021/09/19 02:36:40;;;;;;;9.57;8.67;;;8.80;99.90;;;7.25;100.00;97777.97;4923788;29;20470;-85
2021/09/19 02:39:09;;;;;;;8.57;7.77;;;8.70;99.90;;;7.30;100.00;97765.59;4929206;29;20455;-85
2021/09/19 02:41:37;;;;;;;9.43;8.53;;;8.80;99.90;;;7.43;100.00;97780.13;4914682;29;20456;-87
2021/09/19 02:44:06;;;;;;;8.53;7.80;;;8.80;99.90;;;7.73;100.00;97779.81;4931781;29;20463;-86
2021/09/19 02:46:34;;;;;;;8.67;7.80;;;8.90;99.90;;;7.60;100.00;97770.66;4925637;29;20515;-86
2021/09/19 02:49:03;;;;;;;8.50;7.70;;;8.90;99.90;;;7.62;100.00;97760.53;4928595;29;20448;-84
2021/09/19 02:51:31;;;;;;;7.90;7.20;;;8.90;99.90;;;7.59;100.00;97769.00;4922427;29;21011;-83
2021/09/19 02:54:01;;;;;;;8.73;7.83;;;8.90;99.90;;;7.22;100.00;97760.41;4925634;29;20468;-85
2021/09/19 02:56:28;;;;;;;7.93;7.13;;;8.70;99.90;;;7.22;100.00;97757.72;4893373;29;20452;-86
2021/09/19 02:58:55;;;;;;;8.33;7.43;;;8.60;99.90;;;7.12;100.00;97747.31;4938865;29;20547;-84
2021/09/19 03:01:23;;;;;;;7.00;6.30;;;8.60;99.90;;;6.74;100.00;97721.72;4916014;29;20492;-85
2021/09/19 03:03:50;;;;;;;8.00;7.30;;;8.50;99.90;;;7.12;100.00;97768.81;4921664;29;20453;-84
2021/09/19 03:06:21;;;;;;;7.57;6.90;;;8.40;99.90;;;7.25;100.00;97711.63;4931576;29;20486;-84
2021/09/19 03:08:50;;;;;;;9.43;7.23;;;8.70;99.90;;;7.39;100.00;97758.19;4927820;29;20466;-84
2021/09/19 03:11:18;;;;;;;8.43;6.77;;;8.70;99.90;;;7.24;100.00;97752.97;4932961;29;20539;-84
2021/09/19 03:13:49;;;;;;;7.80;7.10;;;8.60;99.90;;;6.97;100.00;97739.41;4913447;29;20460;-86
2021/09/19 03:16:16;;;;;;;7.53;6.83;;;8.50;99.90;;;6.92;100.00;97758.00;4927328;29;20491;-85
2021/09/19 03:18:43;;;;;;;8.50;7.77;;;8.40;99.90;;;6.96;100.00;97743.13;4920102;29;20475;-85
2021/09/19 03:21:14;;;;;;;8.13;7.43;;;8.30;99.90;;;7.04;100.00;97750.19;4895491;29;20467;-84
2021/09/19 03:23:44;;;;;;;8.37;7.57;;;8.40;99.90;;;7.06;100.00;97735.53;4915997;29;20892;-85
2021/09/19 03:26:13;;;;;;;8.20;7.40;;;8.40;99.90;;;6.91;100.00;97742.91;4924739;29;20498;-85
2021/09/19 03:28:41;;;;;;;8.10;7.40;;;8.40;99.90;;;6.73;100.00;97712.00;4935134;29;20464;-84
2021/09/19 03:31:11;;;;;;;8.50;7.70;;;8.30;99.90;;;6.51;100.00;97685.25;4907929;29;20468;-83
2021/09/19 03:33:40;;;;;;;9.67;6.93;;;8.20;99.90;;;6.69;100.00;97740.28;4902927;29;20463;-84
2021/09/19 03:36:07;;;;;;;8.07;7.37;;;8.20;99.90;;;6.79;100.00;97726.50;4912733;29;20452;-84
2021/09/19 03:38:36;;;;;;;7.07;6.37;;;8.20;99.90;;;6.77;100.00;97718.66;4917847;29;20476;-84
2021/09/19 03:41:08;;;;;;;8.17;7.37;;;8.20;99.90;;;6.89;100.00;97710.88;4924292;29;20463;-84
2021/09/19 03:43:35;;;;;;;8.33;7.47;;;8.30;99.90;;;6.73;100.00;97714.69;4921913;29;20453;-85
2021/09/19 03:46:02;;;;;;;8.73;6.90;;;8.30;99.90;;;7.10;100.00;97730.59;4933466;29;20503;-87
2021/09/19 03:48:29;;;;;;;7.27;6.63;;;8.30;99.90;;;6.90;100.00;97727.78;4927301;29;20575;-84
2021/09/19 03:50:56;;;;;;;7.50;6.90;;;8.30;99.90;;;7.01;100.00;97719.19;4925028;29;20491;-85
2021/09/19 03:53:23;;;;;;;7.30;6.60;;;8.30;99.90;;;7.03;100.00;97698.31;4913177;29;20460;-87
2021/09/19 03:55:53;;;;;;;7.77;7.07;;;8.40;99.90;;;7.00;100.00;97720.22;4906106;29;20467;-85
2021/09/19 03:58:23;;;;;;;7.20;6.60;;;8.40;99.90;;;6.75;100.00;97723.41;4921272;29;20460;-83
2021/09/19 04:00:50;;;;;;;9.70;7.03;;;8.20;99.90;;;6.41;100.00;97686.66;4927359;29;20466;-83
2021/09/19 04:03:17;;;;;;;8.10;6.90;;;8.10;99.90;;;6.55;100.00;97700.97;4932886;29;20551;-83
2021/09/19 04:05:45;;;;;;;7.27;6.67;;;8.10;99.90;;;6.76;100.00;97722.38;4930557;29;20870;-85
2021/09/19 04:08:14;;;;;;;6.63;6.03;;;8.10;99.90;;;6.91;100.00;97724.09;4924243;29;20468;-84
2021/09/19 04:10:44;;;;;;;7.60;6.90;;;8.20;99.90;;;6.72;100.00;97715.72;4909833;29;20467;-85
2021/09/19 04:13:15;;;;;;;7.63;7.00;;;8.10;99.90;;;6.59;100.00;97718.31;4939955;29;20491;-84
2021/09/19 04:15:44;;;;;;;7.40;6.50;;;8.10;99.90;;;6.31;100.00;97689.69;4919673;29;20471;-84
2021/09/19 04:18:13;;;;;;;8.17;7.37;;;8.00;99.90;;;6.55;100.00;97717.06;4923202;29;20467;-87
2021/09/19 04:20:41;;;;;;;7.63;7.00;;;8.00;99.90;;;6.08;100.00;97677.34;4902250;29;20456;-83
2021/09/19 04:23:10;;;;;;;7.90;7.10;;;7.80;99.90;;;6.30;100.00;97710.31;4927217;29;20463;-84
2021/09/19 04:25:43;;;;;;;7.57;6.90;;;7.80;99.90;;;6.42;100.00;97705.22;4934919;29;20462;-85
2021/09/19 04:28:10;;;;;;;7.80;7.10;;;7.90;99.90;;;6.50;100.00;97718.50;4946806;29;20448;-82
2021/09/19 04:30:37;;;;;;;8.63;7.20;;;7.90;99.90;;;6.58;100.00;97709.47;4920110;29;20558;-85
2021/09/19 04:33:06;;;;;;;8.40;7.60;;;8.00;99.90;;;6.66;100.00;97728.09;4924422;29;20475;-85
2021/09/19 04:35:37;;;;;;;7.33;6.73;;;8.00;99.90;;;6.47;100.00;97729.63;4923529;29;20503;-85
2021/09/19 04:38:05;;;;;;;8.63;7.73;;;7.90;99.90;;;6.41;100.00;97713.50;4905050;29;20464;-85
2021/09/19 04:40:33;;;;;;;7.30;6.70;;;7.90;99.90;;;6.45;100.00;97725.47;4919513;29;20464;-84
2021/09/19 04:43:01;;;;;;;8.27;7.47;;;7.90;99.90;;;6.44;100.00;97719.28;4940587;29;20448;-84
2021/09/19 04:45:29;;;;;;;8.80;8.00;;;7.90;99.90;;;6.34;100.00;97718.81;4916248;29;20480;-86
2021/09/19 04:47:56;;;;;;;8.53;7.73;;;7.80;99.90;;;6.39;100.00;97727.09;4925365;29;20466;-85
2021/09/19 04:50:24;;;;;;;8.83;7.87;;;7.80;99.90;;;6.54;100.00;97726.16;4915537;29;20519;-85
2021/09/19 04:52:52;;;;;;;8.87;7.90;;;7.80;99.90;;;6.61;100.00;97729.72;4924946;29;20491;-85
2021/09/19 04:55:20;;;;;;;9.50;7.60;;;7.90;99.90;;;6.74;100.00;97719.03;4916867;29;20475;-84
2021/09/19 04:57:48;;;;;;;8.90;7.97;;;8.10;99.90;;;6.57;100.00;97729.28;4921576;29;20476;-84
2021/09/19 05:00:16;;;;;;;7.87;7.27;;;8.00;99.90;;;6.75;100.00;97731.47;4940427;29;20446;-87
2021/09/19 05:02:50;;;;;;;8.37;7.57;;;8.10;99.90;;;6.95;100.00;97715.44;4917981;29;20468;-84
2021/09/19 05:05:17;;;;;;;8.30;7.50;;;8.20;99.90;;;6.97;100.00;97717.09;4925349;29;20535;-84
2021/09/19 05:07:46;;;;;;;8.13;7.43;;;8.20;99.90;;;6.99;100.00;97718.56;4933592;29;20452;-86
2021/09/19 05:10:15;;;;;;;8.87;7.97;;;8.20;99.90;;;6.92;100.00;97726.56;4937174;29;20487;-83
2021/09/19 05:12:43;;;;;;;8.20;7.50;;;8.30;99.90;;;7.12;100.00;97725.03;4944256;29;20484;-83
2021/09/19 05:15:14;;;;;;;8.97;8.07;;;8.30;99.90;;;7.06;100.00;97714.06;4955077;28;20504;-83
2021/09/19 05:17:42;;;;;;;7.27;6.67;;;8.40;99.90;;;7.29;100.00;97731.69;4935830;29;20421;-85
2021/09/19 05:20:15;;;;;;;7.43;6.73;;;8.50;99.90;;;7.09;100.00;97700.22;4940905;29;20468;-84
2021/09/19 05:22:44;;;;;;;7.10;6.50;;;8.50;99.90;;;7.03;100.00;97727.84;4938858;29;20456;-85
2021/09/19 05:25:15;;;;;;;7.87;7.17;;;8.40;99.90;;;6.89;100.00;97726.13;4934742;29;20471;-86
2021/09/19 05:27:51;;;;;;;9.80;6.73;;;8.40;99.90;;;6.90;100.00;97725.94;4902856;29;20480;-86
2021/09/19 05:30:22;;;;;;;10.90;8.50;;;8.30;99.90;;;6.97;100.00;97743.94;4925952;29;20467;-86
2021/09/19 05:32:50;;;;;;;8.43;7.63;;;8.30;99.90;;;6.81;100.00;97724.44;4922595;29;20499;-85
2021/09/19 05:35:31;;;;;;;10.30;7.57;;;8.30;99.90;;;6.99;100.00;97745.41;4923154;29;20483;-86
2021/09/19 05:38:00;;;;;;;7.80;7.10;;;8.30;99.90;;;6.98;100.00;97743.75;4933110;29;20545;-86
2021/09/19 05:40:29;;;;;;;8.20;7.40;;;8.40;99.90;;;7.05;100.00;97747.31;4920593;29;20464;-86
2021/09/19 05:42:58;;;;;;;8.27;7.57;;;8.40;99.90;;;7.03;100.00;97727.84;4921229;29;20525;-86
2021/09/19 05:45:26;;;;;;;7.40;6.73;;;8.40;99.90;;;7.12;100.00;97746.50;4918988;29;20462;-86
2021/09/19 05:47:53;;;;;;;7.77;7.03;;;8.50;99.90;;;7.17;100.00;97744.03;4924903;29;20817;-84
2021/09/19 05:50:35;;;;;;;7.77;7.07;;;8.50;99.90;;;7.25;100.00;97749.25;4898172;29;20540;-87
2021/09/19 05:53:03;;;;;;;8.20;7.30;;;8.60;99.90;;;7.32;100.00;97755.47;4920198;29;20499;-87
2021/09/19 05:55:33;;;;;;;7.90;7.10;;;8.70;99.90;;;7.36;100.00;97751.38;4915589;29;20495;-88
2021/09/19 05:58:01;;;;;;;7.50;6.90;;;8.70;99.90;;;7.38;100.00;97737.72;4922481;29;20507;-85
2021/09/19 06:00:29;;;;;;;9.90;7.40;;;8.80;99.90;;;7.70;100.00;97754.13;4916928;29;20476;-85
2021/09/19 06:03:01;;;;;;;8.17;7.37;;;8.90;99.90;;;7.71;100.00;97754.97;4923641;29;20987;-86
2021/09/19 06:05:30;;;;;;;6.90;6.30;;;9.00;99.90;;;7.83;100.00;97761.44;4898633;29;20543;-87
2021/09/19 06:08:08;;;;;;;8.43;7.70;;;9.10;99.90;;;8.00;100.00;97763.72;4930340;29;20478;-87
2021/09/19 06:10:46;;;;;;;7.43;6.83;;;9.20;99.90;;;8.09;100.00;97762.47;4924283;29;20531;-88
2021/09/19 06:13:17;;;;;;;8.30;7.40;;;9.30;99.90;;;7.98;100.00;97723.56;4907507;29;20481;-87
2021/09/19 06:15:47;;;;;;;8.27;7.37;;;9.50;99.90;;;8.32;100.00;97766.66;4932406;29;20490;-86
2021/09/19 06:18:28;;;;;;;8.70;7.63;;;9.60;99.90;;;8.44;100.00;97770.38;4877680;29;20456;-88
2021/09/19 06:21:08;;;;;;;8.10;7.10;;;9.70;99.90;;;8.69;100.00;97760.84;4922736;29;20460;-87
2021/09/19 06:23:43;;;;;;;8.93;6.40;;;9.90;99.90;;;8.83;100.00;97762.50;4920865;29;20543;-87
2021/09/19 06:26:20;;;;;;;6.90;6.37;;;10.00;99.90;;;8.87;100.00;97758.31;4921178;29;20487;-88
2021/09/19 06:28:50;;;;;;;7.60;7.00;;;10.10;99.90;;;8.87;100.00;97765.56;4941290;29;20582;-85
2021/09/19 06:31:25;;;;;;;7.00;6.40;;;10.20;99.90;;;8.96;100.00;97761.63;4950499;29;20484;-86
2021/09/19 06:33:53;;;;;;;7.13;6.50;;;10.30;99.20;;;9.14;100.00;97765.50;4950540;28;20482;-87
2021/09/19 06:36:22;;;;;;;6.87;6.27;;;10.40;99.90;;;9.27;100.00;97759.25;4936536;29;20470;-85
2021/09/19 06:38:49;;;;;;;7.20;6.60;;;10.50;98.60;;;9.41;100.00;97762.72;4890116;29;20456;-84
2021/09/19 06:41:21;;;;;;;8.30;7.50;;;10.60;97.70;;;9.54;100.00;97767.22;4923298;29;20459;-86
2021/09/19 06:43:57;;;;;;;6.77;6.07;;;10.80;97.20;;;9.68;100.00;97757.19;4921120;29;20476;-86
2021/09/19 06:46:29;;;;;;;8.30;7.30;;;10.90;96.70;;;9.87;98.56;97750.84;4922465;29;20939;-86
2021/09/19 06:48:57;;;;;;;7.43;6.73;;;11.10;95.10;;;9.97;98.62;97763.03;4923064;29;20475;-85
2021/09/19 06:51:26;;;;;;;7.80;7.10;;;11.10;95.00;;;10.00;100.00;97760.72;4920167;29;20456;-85
2021/09/19 06:53:59;;;;;;;7.40;6.70;;;11.30;97.00;;;10.26;97.82;97766.16;4939157;29;20507;-84
2021/09/19 06:56:34;;;;;;;6.90;6.30;;;11.40;94.90;;;10.35;96.60;97770.22;4921015;29;20455;-85
2021/09/19 07:01:49;;;;;;;6.07;5.60;;;11.70;95.50;;;10.60;97.07;97753.22;4944826;29;20468;-86
2021/09/19 07:04:26;;;;;;;7.07;6.47;;;11.90;95.60;;;10.94;95.45;97767.22;4927384;29;20479;-86
2021/09/19 07:06:58;;;;;;;6.80;6.30;;;12.10;93.60;;;11.43;94.22;97761.06;4925510;29;21021;-87
2021/09/19 07:09:28;;;;;;;8.80;7.90;;;12.40;92.50;;;11.76;92.66;97770.66;4924002;29;21597;-87
2021/09/19 07:12:06;;;;;;;7.77;7.00;;;12.70;91.70;;;11.87;91.80;97756.31;4933874;29;20455;-85
2021/09/19 07:14:41;;;;;;;6.90;6.30;;;12.90;90.80;;;12.17;89.59;97755.47;4903025;29;20487;-87
2021/09/19 07:17:16;;;;;;;6.20;5.70;;;13.20;89.70;;;12.41;88.94;97760.97;4930945;29;20470;-87
2021/09/19 07:19:45;;;;;;;8.80;6.30;;;13.30;88.80;;;12.46;88.28;97733.97;4932964;29;20495;-87
2021/09/19 07:22:21;;;;;;;6.20;5.70;;;13.50;88.30;;;12.71;87.68;97754.63;4920220;29;20574;-86
2021/09/19 07:25:01;;;;;;;5.33;4.93;;;13.70;87.10;;;12.82;87.75;97749.44;4919071;29;20463;-87
2021/09/19 07:27:34;;;;;;;5.30;4.90;;;13.80;86.90;;;13.08;86.36;97750.81;4921305;29;20478;-87
2021/09/19 07:30:07;;;;;;;6.33;5.80;;;14.00;86.40;;;13.17;85.44;97752.06;4919229;29;20487;-86
2021/09/19 07:32:38;;;;;;;4.80;4.30;;;14.10;85.00;;;13.17;84.02;97753.97;4923190;29;20471;-87
2021/09/19 07:35:07;;;;;;;6.03;5.10;;;14.20;83.70;;;13.16;84.43;97750.44;4951622;23;20503;-69
2021/09/19 07:37:35;;;;;;;5.90;5.40;;;14.10;83.60;;;13.34;82.84;97755.94;4958083;28;20483;-69
2021/09/19 07:40:03;;;;;;;5.10;4.70;;;14.20;83.30;;;13.38;82.56;97744.38;4966230;28;20471;-69
2021/09/19 07:42:32;;;;;;;5.70;5.20;;;14.30;82.40;;;13.49;82.43;97756.28;4971367;28;20989;-70
2021/09/19 07:45:00;;;;;;;6.63;4.80;;;14.40;82.40;;;13.63;81.33;97753.28;4967157;28;20496;-69
2021/09/19 07:47:29;;;;;;;6.20;5.70;;;14.50;81.50;;;13.70;80.73;97748.53;4959804;28;20597;-69
2021/09/19 07:49:56;;;;;;;5.17;4.67;;;14.60;80.40;;;14.00;79.93;97753.72;4968393;28;20464;-68
2021/09/19 07:52:24;;;;;;;5.07;4.67;;;14.80;80.30;;;13.98;78.48;97755.03;4966193;28;20564;-68
2021/09/19 07:54:54;;;;;;;5.20;4.80;;;14.90;78.80;;;13.80;78.81;97759.59;4960060;28;20480;-68
2021/09/19 07:57:21;;;;;;;5.30;4.80;;;14.80;78.10;;;14.29;77.50;97761.00;4962017;28;21940;-69
2021/09/19 07:59:50;;;;;;;5.00;4.60;;;15.10;78.40;;;14.57;75.95;97762.00;4964565;28;20556;-71
2021/09/19 08:02:17;;;;;;;8.03;4.50;;;15.30;76.90;;;14.44;76.09;97761.25;4965319;28;21182;-68
2021/09/19 08:04:44;;;;;;;5.73;4.17;;;15.40;76.00;;;14.93;75.29;97759.81;4971078;23;20521;-68
2021/09/19 08:07:11;;;;;;;4.43;4.03;;;15.70;76.20;;;15.37;72.66;97759.06;4947381;28;20952;-68
2021/09/19 08:09:39;;;;;;;4.13;3.83;;;16.00;74.60;;;15.55;72.01;97757.09;4949427;28;20547;-70
2021/09/19 08:12:06;;;;;;;4.43;3.67;;;16.30;73.30;;;15.69;71.35;97755.63;4947155;28;20464;-70
2021/09/19 08:14:34;;;;;;;4.13;3.83;;;16.40;72.70;;;15.64;71.07;97768.34;4943623;28;20478;-69
2021/09/19 08:17:02;;;;;;;4.93;3.70;;;16.50;71.50;;;15.08;72.30;97764.66;4913679;29;20466;-69
2021/09/19 08:19:29;;;;;;;3.80;3.50;;;16.10;71.60;;;14.95;72.65;97768.59;4930896;29;20549;-70
2021/09/19 08:21:56;;;;;;;4.20;3.90;;;15.80;71.80;;;15.21;72.25;97763.47;4933059;29;20549;-70
2021/09/19 08:24:23;;;;;;;4.20;3.90;;;16.00;71.80;;;15.55;71.19;97766.09;4916019;29;20483;-69
2021/09/19 08:26:50;;;;;;;5.00;4.50;;;16.30;71.60;;;15.61;70.33;97766.94;4929168;29;20466;-70
2021/09/19 08:29:18;;;;;;;4.93;4.53;;;16.40;70.70;;;15.69;70.01;97773.84;4929647;29;20506;-69
2021/09/19 08:31:45;;;;;;;4.70;3.53;;;16.40;70.40;;;15.65;70.13;97764.56;4927630;29;20542;-71
2021/09/19 08:34:13;;;;;;;4.07;3.77;;;16.40;70.10;;;15.95;68.83;97768.72;4928681;29;20493;-71
2021/09/19 08:36:41;;;;;;;4.93;3.70;;;16.60;69.90;;;15.98;69.33;97768.19;4929877;29;20473;-71
2021/09/19 08:39:09;;;;;;;3.37;3.17;;;16.60;70.00;;;16.29;67.74;97768.50;4929771;29;20514;-69
2021/09/19 08:41:37;;;;;;;3.80;3.50;;;16.90;69.10;;;16.56;67.05;97773.09;4934013;29;20557;-71
2021/09/19 08:44:05;;;;;;;3.90;3.70;;;17.20;68.80;;;16.67;66.14;97787.63;4934157;29;20471;-69
2021/09/19 08:46:32;;;;;;;3.70;3.40;;;17.30;67.80;;;16.69;65.56;97780.84;4932035;29;20574;-68
2021/09/19 08:48:59;;;;;;;3.50;3.20;;;17.40;67.30;;;16.52;66.01;97788.34;4932152;29;20536;-68
2021/09/19 08:51:27;;;;;;;5.30;3.90;;;17.20;67.10;;;16.25;67.40;97784.56;4930064;29;20463;-67
2021/09/19 08:53:55;;;;;;;4.07;3.70;;;16.90;67.70;;;16.12;67.52;97785.78;4911657;29;20480;-69
2021/09/19 08:56:23;;;;;;;4.57;4.17;;;16.90;67.30;;;16.06;67.49;97780.53;4926146;29;20549;-68
2021/09/19 08:58:50;;;;;;;3.90;3.60;;;16.90;67.40;;;15.93;68.20;97781.78;4929678;29;20979;-68
2021/09/19 09:01:17;;;;;;;4.10;3.80;;;16.70;67.40;;;16.28;67.13;97786.78;4922637;29;20473;-68
2021/09/19 09:03:45;;;;;;;3.60;3.37;;;16.90;67.30;;;15.93;67.76;97781.78;4914423;29;20996;-69
2021/09/19 09:06:14;;;;;;;3.87;3.57;;;16.80;67.00;;;16.53;65.62;97779.06;4930618;29;22359;-68
2021/09/19 09:08:44;;;;;;;3.47;3.27;;;17.10;66.70;;;16.56;65.07;97784.84;4926056;29;20463;-69
2021/09/19 09:11:13;;;;;;;5.67;3.60;;;17.30;66.20;;;16.34;65.78;97781.34;4928838;29;20483;-69
2021/09/19 09:13:42;;;;;;;3.80;3.50;;;17.20;65.80;;;16.42;65.68;97780.91;4926257;29;20479;-70
2021/09/19 09:16:12;;;;;;;3.97;3.70;;;17.20;65.90;;;16.46;65.85;97773.84;4925659;29;20563;-68
2021/09/19 09:18:41;;;;;;;3.33;3.13;;;17.20;66.00;;;16.63;64.64;97784.63;4927021;29;20548;-67
2021/09/19 09:21:11;;;;;;;3.30;3.10;;;17.40;65.80;;;16.72;63.67;97771.31;4924401;29;20474;-68
2021/09/19 09:23:42;;;;;;;3.43;3.20;;;17.50;65.00;;;17.09;62.27;97775.94;4922835;29;20550;-66
2021/09/19 09:26:26;;;;;;;3.73;3.40;;;17.60;64.40;;;17.19;62.06;97772.44;4925904;29;20562;-66
2021/09/19 09:28:58;;;;;;;3.10;2.90;;;17.80;64.00;;;17.28;62.00;97767.28;4924096;29;20463;-67
2021/09/19 09:31:30;;;;;;;3.40;3.20;;;17.80;63.90;;;17.94;59.02;97763.19;4932106;29;20791;-69
2021/09/19 09:34:07;;;;;;;3.53;3.20;;;18.50;62.90;;;17.64;59.20;97763.91;4922904;29;21247;-68
2021/09/19 09:36:41;;;;;;;3.57;3.27;;;18.40;61.90;;;17.50;60.17;97753.47;4921919;29;20458;-65
2021/09/19 09:39:32;;;;;;;3.40;3.10;;;18.30;62.20;;;17.92;59.14;97754.44;4922185;29;20529;-65
2021/09/19 09:42:03;;;;;;;3.70;3.40;;;18.60;61.90;;;17.94;58.31;97754.16;4921965;29;20505;-70
2021/09/19 09:44:36;;;;;;;3.07;2.87;;;18.60;61.10;;;18.07;58.76;97753.66;4926142;29;20502;-70
2021/09/19 09:47:07;;;;;;;3.33;3.03;;;18.70;61.50;;;18.36;57.62;97753.16;4908485;29;20454;-65
2021/09/19 09:49:53;;;;;;;3.90;3.60;;;19.00;61.10;;;18.86;56.41;97747.09;4928473;29;20919;-66
2021/09/19 09:52:23;;;;;;;3.70;3.17;;;19.50;60.70;;;18.54;56.62;97748.22;4922436;29;20477;-66
2021/09/19 09:54:54;;;;;;;3.53;3.27;;;19.30;59.90;;;18.25;58.53;97746.03;4922692;29;20508;-65
2021/09/19 09:57:52;;;;;;;3.40;3.20;;;19.10;60.80;;;18.10;58.65;97744.91;4921461;29;20549;-65
2021/09/19 10:00:21;;;;;;;3.73;3.53;;;18.90;60.50;;;18.04;59.30;97748.75;4927217;29;20509;-65
2021/09/19 10:02:51;;;;;;;3.53;3.27;;;18.90;60.90;;;18.60;57.26;97741.66;4929308;29;20450;-66
2021/09/19 10:05:20;;;;;;;3.67;3.37;;;19.20;60.50;;;18.69;57.46;97734.53;4928181;29;20498;-65
2021/09/19 10:07:48;;;;;;;3.37;3.17;;;19.30;60.40;;;18.91;56.30;97736.16;4925219;29;20451;-65
2021/09/19 10:10:20;;;;;;;3.50;3.30;;;19.50;60.00;;;19.55;55.55;97738.41;4924701;29;21902;-66
2021/09/19 10:12:51;;;;;;;3.23;3.03;;;19.90;60.10;;;19.11;55.91;97745.44;4908829;29;20459;-65
2021/09/19 10:15:20;;;;;;;3.70;3.50;;;19.90;59.50;;;18.74;56.83;97741.09;4928300;29;20546;-65
2021/09/19 10:17:47;;;;;;;3.63;3.20;;;19.60;59.50;;;18.38;57.54;97739.22;4925864;29;21226;-65
2021/09/19 10:20:20;;;;;;;3.90;3.60;;;19.30;59.60;;;18.49;57.10;97726.34;4919884;29;20467;-65
2021/09/19 10:22:52;;;;;;;3.30;3.10;;;19.20;59.60;;;18.64;57.27;97731.81;4904694;29;20487;-65
2021/09/19 10:25:41;;;;;;;3.90;3.60;;;19.30;59.70;;;19.37;55.37;97729.72;4919337;29;20670;-65
2021/09/19 10:28:39;;;;;;;3.10;2.90;;;19.90;59.80;;;19.38;55.35;97727.81;4918552;29;20738;-65
2021/09/19 10:31:28;;;;;;;3.00;2.80;;;20.00;59.40;;;20.03;53.82;97732.41;4926498;29;20474;-65
2021/09/19 10:33:58;;;;;;;4.80;3.97;;;20.40;59.20;;;19.66;53.34;97728.25;4924712;29;20545;-66
2021/09/19 10:36:40;;;;;;;3.53;3.33;;;20.30;58.10;;;19.78;53.70;97731.44;4924303;29;20463;-65
2021/09/19 10:39:27;;;;;;;3.37;3.17;;;20.30;58.50;;;20.22;52.11;97729.00;4924361;29;20458;-65